Arcata Airport
KACV : now visible

Airfield :











YOU CAN JOIN US ON...

 
LOGIN :

Register | Disclaimer

   EN    FR    IT 

 









Legend :    VFR   Marginal VFR   IFR   Intensive IFR   Very Intensive IFR
Visi :
Ceiling :
>= 8 km
>= 3000ft
5 to 8 km
1000 to 3000 ft
1500m to 5 km
500 to 1000 ft
800 to 1500m
200 to 500 ft
< 800m
< 200 ft
Symbols :   Thunderstorms  Fog  Heavy snow  Heavy precipitations  Wind > 20 kt






- Airport Elevation : 221 ft
- IATA code : ACV


KACV - Arcata

CURRENT METAR :
  • 162353Z AUTO 32010KT 10SM SCT065 OVC080 14/08 A3002 RMK AO2 RAB26E35 SLP173 P0000 60000 T01440078 10161 20128 58010

EXPIRED METARs :
  • 162253Z AUTO 32014KT 10SM OVC060 14/08 A3004 RMK AO2 SLP179 T01440078
  • 162153Z AUTO 31014KT 10SM SCT120 16/08 A3004 RMK AO2 SLP179 T01560078
  • 162053Z AUTO 30009G15KT 10SM CLR 14/09 A3005 RMK AO2 SLP182 T01440089 58004
  • 161953Z AUTO 28007KT 10SM CLR 13/08 A3006 RMK AO2 SLP184 T01330078

TAF KACV
Valid from the 17 at 00:00 until the 18 at 00:00 UTC


162340Z 1700/1724 33014KT P6SM OVC060
FM170300 35010KT P6SM SCT080
FM170600 VRB03KT 5SM BR BKN010
FM171100 06005KT 6SM BR SCT015
FM171700 33012G22KT P6SM SKC
KZSE FIR / North America



MET'MAP, your aeronautical weather chart ! - Copyright ORBIFLY December 2007 - Disclaimer

ORBIFLY MET'MAP TEAM :

Programming & Development : Alexandra Zaïnal
Original concept : Baudouin d'Aumeries
Technical & hardware support : Manuel Goepfert
Assistance : Marc-Olivier Méhu




SOURCES & CREDITS :

   NOAA       Earth
Advisory